createdAt,value
2022-11-23T00:00:29.935Z,52
2022-11-23T00:01:37.414Z,56
2022-11-23T00:02:45.559Z,55
2022-11-23T00:03:53.039Z,49
2022-11-23T00:05:00.305Z,49
2022-11-23T00:06:07.733Z,50
2022-11-23T00:07:15.996Z,50
2022-11-23T00:08:23.743Z,46
2022-11-23T00:09:32.096Z,49
2022-11-23T00:10:39.351Z,48
2022-11-23T00:11:46.279Z,43
2022-11-23T00:12:55.568Z,49
2022-11-23T00:14:02.709Z,46
2022-11-23T00:15:09.863Z,44
2022-11-23T00:16:16.877Z,46
2022-11-23T00:17:24.340Z,48
2022-11-23T00:18:31.704Z,44
2022-11-23T00:19:38.963Z,49
2022-11-23T00:20:45.971Z,46
2022-11-23T00:21:55.436Z,41
2022-11-23T00:23:02.555Z,38
2022-11-23T00:24:09.811Z,48
2022-11-23T00:25:17.435Z,49
2022-11-23T00:26:24.899Z,44
2022-11-23T00:27:32.856Z,39
2022-11-23T00:28:40.021Z,37
2022-11-23T00:29:47.176Z,40
2022-11-23T00:30:54.329Z,36
2022-11-23T00:32:01.428Z,41
2022-11-23T00:33:08.514Z,39
2022-11-23T00:34:15.743Z,44
2022-11-23T00:35:23.448Z,38
2022-11-23T00:36:30.476Z,40
2022-11-23T00:37:37.703Z,41
2022-11-23T00:38:45.176Z,44
2022-11-23T00:39:52.329Z,41
2022-11-23T00:40:59.655Z,37
2022-11-23T00:42:09.632Z,35
2022-11-23T00:43:16.921Z,42
2022-11-23T00:44:24.274Z,35
2022-11-23T00:45:31.497Z,37
2022-11-23T00:46:38.644Z,35
2022-11-23T00:47:45.939Z,38
2022-11-23T00:48:53.205Z,38
2022-11-23T00:50:00.036Z,37
2022-11-23T00:51:07.636Z,36
2022-11-23T00:52:14.928Z,33
2022-11-23T00:53:21.936Z,36
2022-11-23T00:54:29.150Z,33
2022-11-23T00:55:36.354Z,37
2022-11-23T00:56:43.308Z,30
2022-11-23T00:57:50.460Z,35
2022-11-23T00:58:57.963Z,41
2022-11-23T01:00:05.408Z,34
2022-11-23T01:01:13.070Z,35
2022-11-23T01:02:20.248Z,40
2022-11-23T01:03:27.444Z,31
2022-11-23T01:04:34.804Z,37
2022-11-23T01:05:42.180Z,40
2022-11-23T01:06:49.679Z,39
2022-11-23T01:07:56.980Z,34
2022-11-23T01:09:04.458Z,34
2022-11-23T01:10:11.576Z,39
2022-11-23T01:11:19.566Z,36
2022-11-23T01:12:26.782Z,38
2022-11-23T01:13:35.021Z,28
2022-11-23T01:14:42.180Z,30
2022-11-23T01:15:49.292Z,36
2022-11-23T01:16:56.473Z,36
2022-11-23T01:18:03.575Z,34
2022-11-23T01:19:10.697Z,39
2022-11-23T01:20:18.014Z,33
2022-11-23T01:21:25.683Z,30
2022-11-23T01:22:33.282Z,35
2022-11-23T01:23:40.786Z,36
2022-11-23T01:24:47.946Z,32
2022-11-23T01:25:57.040Z,28
2022-11-23T01:27:02.610Z,31
2022-11-23T01:28:10.623Z,34
2022-11-23T01:29:17.919Z,37
2022-11-23T01:30:26.374Z,26
2022-11-23T01:31:33.856Z,29
2022-11-23T01:32:41.438Z,32
2022-11-23T01:33:49.094Z,31
2022-11-23T01:34:59.199Z,31
2022-11-23T01:36:07.250Z,30
2022-11-23T01:37:17.581Z,37
2022-11-23T01:38:25.399Z,30
2022-11-23T01:39:32.992Z,32
2022-11-23T01:40:39.820Z,30
2022-11-23T01:41:48.011Z,36
2022-11-23T01:42:55.458Z,33
2022-11-23T01:44:05.619Z,35
2022-11-23T01:45:23.118Z,25
2022-11-23T01:46:38.726Z,33
2022-11-23T01:47:46.247Z,30
2022-11-23T01:48:53.694Z,31
2022-11-23T01:50:05.914Z,30
2022-11-23T01:51:13.147Z,27
2022-11-23T01:52:20.202Z,34
2022-11-23T01:53:28.214Z,25
2022-11-23T01:54:35.698Z,35
2022-11-23T01:55:43.010Z,35
2022-11-23T01:56:50.126Z,29
2022-11-23T01:57:57.329Z,29
2022-11-23T01:59:04.862Z,36
2022-11-23T02:00:11.934Z,34
2022-11-23T02:01:19.288Z,34
2022-11-23T02:02:26.426Z,26
2022-11-23T02:03:36.786Z,33
2022-11-23T02:04:45.396Z,37
2022-11-23T02:05:52.823Z,31
2022-11-23T02:06:59.998Z,41
2022-11-23T02:08:07.570Z,34
2022-11-23T02:09:14.778Z,35
2022-11-23T02:10:21.814Z,35
2022-11-23T02:11:28.946Z,37
2022-11-23T02:12:36.178Z,35
2022-11-23T02:13:43.396Z,36
2022-11-23T02:14:50.244Z,35
2022-11-23T02:15:57.557Z,36
2022-11-23T02:17:05.867Z,36
2022-11-23T02:18:13.902Z,36
2022-11-23T02:19:21.479Z,35
2022-11-23T02:20:32.783Z,35
2022-11-23T02:21:40.386Z,33
2022-11-23T02:22:47.394Z,36
2022-11-23T02:23:57.502Z,37
2022-11-23T02:25:08.866Z,40
2022-11-23T02:26:26.961Z,33
2022-11-23T02:27:34.582Z,39
2022-11-23T02:28:42.238Z,41
2022-11-23T02:29:49.791Z,36
2022-11-23T02:30:57.015Z,37
2022-11-23T02:32:05.343Z,39
2022-11-23T02:33:12.654Z,38
2022-11-23T02:34:20.346Z,37
2022-11-23T02:35:31.106Z,42
2022-11-23T02:36:38.822Z,38
2022-11-23T02:37:48.790Z,34
2022-11-23T02:38:56.382Z,33
2022-11-23T02:40:03.968Z,37
2022-11-23T02:41:11.618Z,35
2022-11-23T02:42:19.546Z,35
2022-11-23T02:43:42.145Z,30
2022-11-23T02:44:50.019Z,30
2022-11-23T02:46:08.690Z,32
2022-11-23T02:47:15.856Z,32
2022-11-23T02:48:28.598Z,29
2022-11-23T02:49:36.371Z,30
2022-11-23T02:50:46.309Z,35
2022-11-23T02:51:53.662Z,27
2022-11-23T02:53:01.624Z,36
2022-11-23T02:54:10.073Z,32
2022-11-23T02:55:17.579Z,32
2022-11-23T02:56:25.494Z,32
2022-11-23T02:57:32.735Z,35
2022-11-23T02:58:40.231Z,35
2022-11-23T02:59:47.635Z,35
2022-11-23T03:00:58.391Z,37
2022-11-23T03:02:05.784Z,35
2022-11-23T03:03:13.222Z,29
2022-11-23T03:04:25.988Z,31
2022-11-23T03:05:28.346Z,30
2022-11-23T03:06:36.114Z,36
2022-11-23T03:07:43.685Z,30
2022-11-23T03:08:51.234Z,37
2022-11-23T03:09:58.383Z,34
2022-11-23T03:11:05.541Z,32
2022-11-23T03:12:12.798Z,36
2022-11-23T03:13:20.659Z,31
2022-11-23T03:14:27.911Z,37
2022-11-23T03:15:35.402Z,45
2022-11-23T03:16:42.902Z,49
2022-11-23T03:17:50.614Z,37
2022-11-23T03:18:58.175Z,51
2022-11-23T03:20:08.319Z,46
2022-11-23T03:21:15.858Z,50
2022-11-23T03:22:23.552Z,42
2022-11-23T03:23:31.023Z,33
2022-11-23T03:24:38.094Z,42
2022-11-23T03:25:45.534Z,35
2022-11-23T03:26:52.878Z,42
2022-11-23T03:28:00.387Z,35
2022-11-23T03:29:07.997Z,47
2022-11-23T03:30:15.492Z,36
2022-11-23T03:31:23.075Z,37
2022-11-23T03:32:31.026Z,40
2022-11-23T03:33:39.406Z,29
2022-11-23T03:34:46.879Z,31
2022-11-23T03:35:54.556Z,32
2022-11-23T03:37:09.129Z,39
2022-11-23T03:38:16.878Z,37
2022-11-23T03:39:24.267Z,32
2022-11-23T03:40:31.449Z,36
2022-11-23T03:41:38.418Z,31
2022-11-23T03:42:46.231Z,35
2022-11-23T03:43:53.330Z,48
2022-11-23T03:45:00.766Z,43
2022-11-23T03:46:08.218Z,46
2022-11-23T03:47:15.515Z,36
2022-11-23T03:48:22.934Z,33
2022-11-23T03:49:30.367Z,39
2022-11-23T03:50:44.354Z,35
2022-11-23T03:52:02.048Z,41
2022-11-23T03:53:19.758Z,35
2022-11-23T03:54:44.778Z,44
2022-11-23T03:55:59.488Z,40
2022-11-23T03:57:33.122Z,49
2022-11-23T03:58:52.798Z,43
2022-11-23T04:00:13.166Z,47
2022-11-23T04:01:25.099Z,47
2022-11-23T04:02:41.833Z,46
2022-11-23T04:03:54.138Z,41
2022-11-23T04:05:08.450Z,44
2022-11-23T04:06:28.917Z,40
2022-11-23T04:07:45.054Z,39
2022-11-23T04:09:01.681Z,38
2022-11-23T04:10:13.978Z,39
2022-11-23T04:11:25.349Z,46
2022-11-23T04:12:42.188Z,40
2022-11-23T04:13:50.497Z,57
2022-11-23T04:15:01.739Z,56
2022-11-23T04:16:23.735Z,50
2022-11-23T04:17:41.100Z,53
2022-11-23T04:18:49.452Z,48
2022-11-23T04:20:03.465Z,48
2022-11-23T04:21:26.642Z,56
2022-11-23T04:22:39.686Z,49
2022-11-23T04:23:48.122Z,49
2022-11-23T04:24:59.594Z,49
2022-11-23T04:26:10.942Z,58
2022-11-23T04:27:19.006Z,53
2022-11-23T04:28:33.115Z,51
2022-11-23T04:29:44.198Z,51
2022-11-23T04:31:10.082Z,52
2022-11-23T04:32:18.717Z,55
2022-11-23T04:33:38.988Z,54
2022-11-23T04:34:53.499Z,59
2022-11-23T04:36:02.082Z,49
2022-11-23T04:37:19.034Z,48
2022-11-23T04:38:32.773Z,49
2022-11-23T04:39:44.086Z,56
2022-11-23T04:40:55.353Z,55
2022-11-23T04:42:13.053Z,58
2022-11-23T04:43:30.205Z,48
2022-11-23T04:44:41.785Z,55
2022-11-23T04:45:49.950Z,62
2022-11-23T04:47:08.561Z,66
2022-11-23T04:48:24.932Z,65
2022-11-23T04:49:39.970Z,59
2022-11-23T04:50:55.394Z,58
2022-11-23T04:52:03.421Z,55
2022-11-23T04:53:20.954Z,53
2022-11-23T04:54:31.557Z,56
2022-11-23T04:55:48.213Z,56
2022-11-23T04:57:08.205Z,69
2022-11-23T04:58:19.149Z,67
2022-11-23T04:59:31.536Z,82
2022-11-23T05:00:44.675Z,75
2022-11-23T05:02:02.090Z,75
2022-11-23T05:03:24.553Z,68
2022-11-23T05:04:35.585Z,70
2022-11-23T05:05:48.354Z,70
2022-11-23T05:07:04.714Z,69
2022-11-23T05:08:12.869Z,66
2022-11-23T05:09:20.795Z,65
2022-11-23T05:10:35.058Z,67
2022-11-23T05:11:52.079Z,63
2022-11-23T05:13:00.402Z,65
2022-11-23T05:14:13.845Z,55
2022-11-23T05:15:31.457Z,57
2022-11-23T05:16:48.478Z,61
2022-11-23T05:18:02.926Z,62
2022-11-23T05:19:25.772Z,61
2022-11-23T05:20:38.540Z,63
2022-11-23T05:22:00.898Z,65
2022-11-23T05:23:11.570Z,57
2022-11-23T05:24:22.465Z,50
2022-11-23T05:25:37.001Z,56
2022-11-23T05:26:44.960Z,67
2022-11-23T05:28:07.442Z,54
2022-11-23T05:29:07.289Z,54
2022-11-23T05:30:18.464Z,56
2022-11-23T05:31:35.990Z,58
2022-11-23T05:32:44.305Z,57
2022-11-23T05:33:58.144Z,48
2022-11-23T05:35:12.624Z,52
2022-11-23T05:36:24.884Z,56
2022-11-23T05:37:35.772Z,68
2022-11-23T05:38:53.922Z,59
2022-11-23T05:40:04.517Z,58
2022-11-23T05:41:13.303Z,57
2022-11-23T05:42:24.653Z,52
2022-11-23T05:43:32.774Z,61
2022-11-23T05:44:41.724Z,53
2022-11-23T05:45:49.666Z,49
2022-11-23T05:46:57.724Z,47
2022-11-23T05:48:05.900Z,51
2022-11-23T05:49:14.173Z,51
2022-11-23T05:50:31.649Z,48
2022-11-23T05:51:45.208Z,51
2022-11-23T05:53:01.037Z,46
2022-11-23T05:54:12.801Z,44
2022-11-23T05:55:20.763Z,43
2022-11-23T05:56:30.404Z,51
2022-11-23T05:57:41.089Z,47
2022-11-23T05:58:55.484Z,43
2022-11-23T06:00:03.529Z,41
2022-11-23T06:01:11.189Z,41
2022-11-23T06:02:28.437Z,41
2022-11-23T06:03:42.969Z,42
2022-11-23T06:04:53.776Z,41
2022-11-23T06:06:08.416Z,30
2022-11-23T06:07:16.259Z,37
2022-11-23T06:08:24.464Z,42
2022-11-23T06:09:36.077Z,49
2022-11-23T06:10:46.936Z,40
2022-11-23T06:11:55.818Z,31
2022-11-23T06:13:03.690Z,37
2022-11-23T06:14:14.345Z,34
2022-11-23T06:15:19.909Z,40
2022-11-23T06:16:34.576Z,37
2022-11-23T06:17:42.303Z,45
2022-11-23T06:18:53.468Z,43
2022-11-23T06:20:01.062Z,41
2022-11-23T06:21:12.845Z,31
2022-11-23T06:22:32.429Z,32
2022-11-23T06:23:47.509Z,43
2022-11-23T06:25:01.544Z,45
2022-11-23T06:26:12.526Z,36
2022-11-23T06:27:20.879Z,39
2022-11-23T06:28:34.433Z,34
2022-11-23T06:29:43.576Z,37
2022-11-23T06:30:50.942Z,42
2022-11-23T06:31:57.817Z,45
2022-11-23T06:33:04.985Z,36
2022-11-23T06:34:12.306Z,30
2022-11-23T06:35:19.293Z,33
2022-11-23T06:36:27.049Z,32
2022-11-23T06:37:34.169Z,34
2022-11-23T06:38:41.516Z,36
2022-11-23T06:39:48.905Z,32
2022-11-23T06:40:56.181Z,32
2022-11-23T06:42:23.643Z,30
2022-11-23T06:43:10.586Z,32
2022-11-23T06:44:17.910Z,26
2022-11-23T06:45:25.528Z,32
2022-11-23T06:46:32.968Z,35
2022-11-23T06:47:40.377Z,32
2022-11-23T06:48:47.469Z,34
2022-11-23T06:49:54.560Z,40
2022-11-23T06:51:01.705Z,33
2022-11-23T06:52:08.721Z,36
2022-11-23T06:53:16.169Z,33
2022-11-23T06:54:27.127Z,30
2022-11-23T06:55:30.200Z,37
2022-11-23T06:56:37.376Z,25
2022-11-23T06:57:44.616Z,35
2022-11-23T06:58:52.573Z,31
2022-11-23T06:59:59.889Z,38
2022-11-23T07:01:07.970Z,31
2022-11-23T07:02:15.053Z,30
2022-11-23T07:03:22.417Z,25
2022-11-23T07:04:30.309Z,35
2022-11-23T07:05:37.607Z,33
2022-11-23T07:06:46.449Z,33
2022-11-23T07:07:54.486Z,36
2022-11-23T07:09:01.472Z,32
2022-11-23T07:10:08.682Z,38
2022-11-23T07:11:15.821Z,34
2022-11-23T07:12:22.875Z,37
2022-11-23T07:13:30.100Z,28
2022-11-23T07:14:38.600Z,32
2022-11-23T07:15:45.983Z,30
2022-11-23T07:16:52.986Z,36
2022-11-23T07:18:00.093Z,34
2022-11-23T07:19:07.260Z,33
2022-11-23T07:20:14.487Z,28
2022-11-23T07:21:21.483Z,33
2022-11-23T07:22:28.608Z,25
2022-11-23T07:23:35.773Z,31
2022-11-23T07:24:46.653Z,31
2022-11-23T07:25:50.168Z,31
2022-11-23T07:26:57.336Z,35
2022-11-23T07:28:04.480Z,30
2022-11-23T07:29:11.588Z,34
2022-11-23T07:30:18.772Z,27
2022-11-23T07:31:25.804Z,29
2022-11-23T07:32:33.181Z,36
2022-11-23T07:33:40.549Z,37
2022-11-23T07:34:50.815Z,33
2022-11-23T07:35:57.896Z,33
2022-11-23T07:37:07.635Z,56
2022-11-23T07:38:19.551Z,50
2022-11-23T07:39:56.106Z,54
2022-11-23T07:40:42.622Z,47
2022-11-23T07:41:51.397Z,54
2022-11-23T07:42:56.924Z,48
2022-11-23T07:44:04.039Z,44
2022-11-23T07:45:11.227Z,51
2022-11-23T07:46:19.357Z,55
2022-11-23T07:47:26.496Z,51
2022-11-23T07:48:36.475Z,56
2022-11-23T07:49:40.748Z,47
2022-11-23T07:50:47.943Z,61
2022-11-23T07:51:58.140Z,69
2022-11-23T07:53:05.241Z,76
2022-11-23T07:54:12.335Z,76
2022-11-23T07:55:20.444Z,79
2022-11-23T07:56:27.707Z,78
2022-11-23T07:57:34.800Z,85
2022-11-23T07:58:41.905Z,78
2022-11-23T07:59:49.012Z,66
2022-11-23T08:00:56.168Z,71
2022-11-23T08:02:04.469Z,80
2022-11-23T08:03:27.043Z,74
2022-11-23T08:04:19.600Z,71
2022-11-23T08:05:26.940Z,75
2022-11-23T08:06:37.004Z,78
2022-11-23T08:07:45.234Z,71
2022-11-23T08:08:52.234Z,70
2022-11-23T08:09:59.391Z,81
2022-11-23T08:11:07.541Z,78
2022-11-23T08:12:14.755Z,86
2022-11-23T08:13:22.575Z,76
2022-11-23T08:14:29.838Z,72
2022-11-23T08:15:37.611Z,92
2022-11-23T08:16:46.724Z,82
2022-11-23T08:17:54.030Z,91
2022-11-23T08:19:02.232Z,82
2022-11-23T08:20:10.464Z,88
2022-11-23T08:21:17.419Z,84
2022-11-23T08:22:24.544Z,75
2022-11-23T08:23:32.185Z,80
2022-11-23T08:24:39.312Z,77
2022-11-23T08:25:47.355Z,81
2022-11-23T08:26:54.559Z,75
2022-11-23T08:28:03.673Z,72
2022-11-23T08:29:11.140Z,75
2022-11-23T08:30:20.445Z,84
2022-11-23T08:31:27.728Z,102
2022-11-23T08:32:34.864Z,87
2022-11-23T08:33:42.212Z,84
2022-11-23T08:34:49.131Z,76
2022-11-23T08:35:56.329Z,77
2022-11-23T08:37:03.984Z,80
2022-11-23T08:38:11.211Z,85
2022-11-23T08:39:18.547Z,88
2022-11-23T08:40:26.095Z,83
2022-11-23T08:41:33.227Z,79
2022-11-23T08:42:40.375Z,78
2022-11-23T08:43:47.842Z,79
2022-11-23T08:44:56.687Z,85
2022-11-23T08:46:06.877Z,77
2022-11-23T08:47:10.681Z,76
2022-11-23T08:48:19.566Z,77
2022-11-23T08:49:26.507Z,78
2022-11-23T08:50:34.929Z,89
2022-11-23T08:51:47.115Z,81
2022-11-23T08:52:50.130Z,87
2022-11-23T08:54:05.300Z,99
2022-11-23T08:55:13.618Z,94
2022-11-23T08:56:22.369Z,87
2022-11-23T08:57:30.818Z,86
2022-11-23T08:58:38.650Z,89
2022-11-23T08:59:46.233Z,86
2022-11-23T09:00:54.930Z,86
2022-11-23T09:02:04.845Z,81
2022-11-23T09:03:13.118Z,82
2022-11-23T09:04:21.482Z,81
2022-11-23T09:05:29.203Z,97
2022-11-23T09:06:36.906Z,85
2022-11-23T09:07:44.636Z,81
2022-11-23T09:08:52.349Z,97
2022-11-23T09:09:59.552Z,95
2022-11-23T09:11:06.800Z,91
2022-11-23T09:12:14.745Z,93
2022-11-23T09:13:22.652Z,88
2022-11-23T09:14:30.726Z,87
2022-11-23T09:15:39.260Z,86
2022-11-23T09:16:46.667Z,77
2022-11-23T09:17:54.860Z,88
2022-11-23T09:19:02.163Z,83
2022-11-23T09:20:09.490Z,90
2022-11-23T09:21:17.280Z,79
2022-11-23T09:22:24.705Z,80
2022-11-23T09:23:31.621Z,78
2022-11-23T09:24:39.238Z,74
2022-11-23T09:25:46.590Z,78
2022-11-23T09:26:53.573Z,76
2022-11-23T09:28:00.885Z,68
2022-11-23T09:29:08.052Z,69
2022-11-23T09:30:15.117Z,69
2022-11-23T09:31:22.258Z,66
2022-11-23T09:32:30.151Z,66
2022-11-23T09:33:37.735Z,58
2022-11-23T09:34:45.841Z,68
2022-11-23T09:35:52.754Z,69
2022-11-23T09:37:00.106Z,64
2022-11-23T09:38:07.310Z,64
2022-11-23T09:39:14.410Z,66
2022-11-23T09:40:21.498Z,61
2022-11-23T09:41:29.262Z,54
2022-11-23T09:42:44.400Z,67
2022-11-23T09:44:01.579Z,70
2022-11-23T09:45:16.918Z,58
2022-11-23T09:46:36.931Z,61
2022-11-23T09:47:50.628Z,53
2022-11-23T09:49:07.048Z,59
2022-11-23T09:50:19.543Z,53
2022-11-23T09:51:31.816Z,49
2022-11-23T09:52:39.907Z,59
2022-11-23T09:53:48.109Z,51
2022-11-23T09:55:00.965Z,65
2022-11-23T09:56:13.423Z,53
2022-11-23T09:57:28.703Z,55
2022-11-23T09:58:35.943Z,49
2022-11-23T09:59:43.607Z,53
2022-11-23T10:00:58.823Z,49
2022-11-23T10:02:08.998Z,46
2022-11-23T10:03:21.415Z,40
2022-11-23T10:04:28.563Z,36
2022-11-23T10:05:38.945Z,43
2022-11-23T10:06:47.719Z,53
2022-11-23T10:07:58.511Z,51
2022-11-23T10:09:11.282Z,44
2022-11-23T10:10:23.585Z,55
2022-11-23T10:11:41.077Z,39
2022-11-23T10:12:59.598Z,42
2022-11-23T10:14:17.075Z,38
2022-11-23T10:15:34.309Z,41
2022-11-23T10:16:46.039Z,35
2022-11-23T10:17:56.418Z,30
2022-11-23T10:19:12.976Z,31
2022-11-23T10:20:28.585Z,28
2022-11-23T10:21:46.607Z,35
2022-11-23T10:22:55.417Z,29
2022-11-23T10:24:05.480Z,27
2022-11-23T10:25:12.848Z,25
2022-11-23T10:26:19.981Z,25
2022-11-23T10:27:33.570Z,30
2022-11-23T10:28:41.090Z,25
2022-11-23T10:29:51.826Z,30
2022-11-23T10:31:02.443Z,30
2022-11-23T10:32:18.199Z,32
2022-11-23T10:33:25.465Z,26
2022-11-23T10:34:33.280Z,25
2022-11-23T10:35:50.531Z,30
2022-11-23T10:36:57.547Z,34
2022-11-23T10:38:05.098Z,31
2022-11-23T10:39:23.184Z,28
2022-11-23T10:40:30.547Z,25
2022-11-23T10:41:39.016Z,27
2022-11-23T10:42:45.906Z,32
2022-11-23T10:43:53.364Z,27
2022-11-23T10:45:08.561Z,25
2022-11-23T10:46:23.915Z,31
2022-11-23T10:47:34.180Z,35
2022-11-23T10:48:41.665Z,32
2022-11-23T10:49:49.681Z,34
2022-11-23T10:50:56.761Z,29
2022-11-23T10:52:07.096Z,34
2022-11-23T10:53:23.686Z,32
2022-11-23T10:54:31.403Z,32
2022-11-23T10:55:43.242Z,30
2022-11-23T10:56:58.225Z,27
2022-11-23T10:58:05.597Z,31
2022-11-23T10:59:12.880Z,25
2022-11-23T11:00:31.488Z,37
2022-11-23T11:01:37.615Z,29
2022-11-23T11:02:45.044Z,25
2022-11-23T11:03:56.039Z,37
2022-11-23T11:05:03.228Z,32
2022-11-23T11:06:20.988Z,29
2022-11-23T11:07:33.175Z,25
2022-11-23T11:08:40.532Z,33
2022-11-23T11:10:05.629Z,28
2022-11-23T11:11:11.503Z,25
2022-11-23T11:12:23.590Z,28
2022-11-23T11:13:34.099Z,38
2022-11-23T11:14:46.656Z,45
2022-11-23T11:15:58.734Z,33
2022-11-23T11:17:05.794Z,38
2022-11-23T11:18:14.130Z,38
2022-11-23T11:19:21.062Z,36
2022-11-23T11:20:33.814Z,37
2022-11-23T11:21:41.651Z,34
2022-11-23T11:22:49.574Z,35
2022-11-23T11:23:58.922Z,40
2022-11-23T11:25:05.991Z,37
2022-11-23T11:26:13.145Z,38
2022-11-23T11:27:20.997Z,34
2022-11-23T11:28:28.663Z,34
2022-11-23T11:29:41.249Z,32
2022-11-23T11:30:48.143Z,30
2022-11-23T11:31:55.657Z,33
2022-11-23T11:33:13.246Z,31
2022-11-23T11:34:25.701Z,37
2022-11-23T11:35:33.038Z,38
2022-11-23T11:36:40.302Z,37
2022-11-23T11:37:53.818Z,32
2022-11-23T11:39:19.981Z,28
2022-11-23T11:40:11.936Z,31
2022-11-23T11:41:22.321Z,38
2022-11-23T11:42:29.724Z,32
2022-11-23T11:43:39.748Z,30
2022-11-23T11:44:50.446Z,27
2022-11-23T11:47:07.855Z,27
2022-11-23T11:48:21.323Z,27
2022-11-23T11:49:28.351Z,28
2022-11-23T11:50:35.568Z,26
2022-11-23T11:51:43.139Z,25
2022-11-23T11:52:50.458Z,38
2022-11-23T11:53:59.335Z,34
2022-11-23T11:55:17.272Z,47
2022-11-23T11:56:27.779Z,40
2022-11-23T11:57:35.116Z,35
2022-11-23T11:58:52.607Z,30
2022-11-23T12:00:02.563Z,34
2022-11-23T12:01:09.769Z,35
2022-11-23T12:02:23.146Z,33
2022-11-23T12:03:30.206Z,32
2022-11-23T12:04:42.982Z,36
2022-11-23T12:06:00.166Z,36
2022-11-23T12:07:09.867Z,34
2022-11-23T12:08:22.747Z,31
2022-11-23T12:09:41.672Z,39
2022-11-23T12:10:49.334Z,33
2022-11-23T12:11:59.297Z,28
2022-11-23T12:13:06.751Z,32
2022-11-23T12:14:20.062Z,36
2022-11-23T12:15:48.146Z,29
2022-11-23T12:16:39.760Z,28
2022-11-23T12:17:55.295Z,29
2022-11-23T12:19:11.732Z,31
2022-11-23T12:20:29.313Z,35
2022-11-23T12:21:41.598Z,27
2022-11-23T12:22:59.045Z,27
2022-11-23T12:24:16.656Z,27
2022-11-23T12:25:31.932Z,35
2022-11-23T12:26:41.762Z,29
2022-11-23T12:27:59.975Z,28
2022-11-23T12:29:12.271Z,30
2022-11-23T12:30:22.595Z,30
2022-11-23T12:31:34.902Z,35
2022-11-23T12:32:50.462Z,28
2022-11-23T12:34:07.947Z,29
2022-11-23T12:35:20.484Z,30
2022-11-23T12:36:39.952Z,27
2022-11-23T12:37:55.082Z,30
2022-11-23T12:39:12.354Z,28
2022-11-23T12:40:30.553Z,31
2022-11-23T12:41:48.831Z,26
2022-11-23T12:43:13.860Z,28
2022-11-23T12:44:33.085Z,29
2022-11-23T12:45:44.847Z,26
2022-11-23T12:46:58.265Z,27
2022-11-23T12:48:11.239Z,31
2022-11-23T12:49:29.399Z,30
2022-11-23T12:50:40.242Z,27
2022-11-23T12:51:52.863Z,29
2022-11-23T12:53:11.998Z,28
2022-11-23T12:54:24.678Z,29
2022-11-23T12:55:42.365Z,33
2022-11-23T12:56:54.838Z,30
2022-11-23T12:58:12.926Z,31
2022-11-23T12:59:20.868Z,26
2022-11-23T13:00:28.853Z,28
2022-11-23T13:01:39.206Z,32
2022-11-23T13:02:46.626Z,28
2022-11-23T13:04:03.250Z,27
2022-11-23T13:05:15.689Z,26
2022-11-23T13:06:33.902Z,28
2022-11-23T13:07:49.217Z,25
2022-11-23T13:09:04.744Z,29
2022-11-23T13:10:20.866Z,33
2022-11-23T13:11:33.127Z,36
2022-11-23T13:12:49.395Z,27
2022-11-23T13:14:04.691Z,28
2022-11-23T13:15:19.972Z,25
2022-11-23T13:16:33.431Z,30
2022-11-23T13:17:46.756Z,28
2022-11-23T13:19:04.827Z,25
2022-11-23T13:20:19.760Z,29
2022-11-23T13:21:35.180Z,33
2022-11-23T13:22:48.771Z,28
2022-11-23T13:23:58.114Z,33
2022-11-23T13:25:05.379Z,28
2022-11-23T13:26:17.463Z,26
2022-11-23T13:27:31.353Z,37
2022-11-23T13:28:45.164Z,32
2022-11-23T13:29:52.126Z,32
2022-11-23T13:31:14.354Z,34
2022-11-23T13:32:18.189Z,27
2022-11-23T13:33:36.978Z,28
2022-11-23T13:34:40.203Z,30
2022-11-23T13:35:48.319Z,31
2022-11-23T13:37:12.020Z,27
2022-11-23T13:38:02.495Z,33
2022-11-23T13:39:17.478Z,26
2022-11-23T13:40:33.334Z,27
2022-11-23T13:41:40.571Z,30
2022-11-23T13:42:55.556Z,30
2022-11-23T13:44:07.789Z,31
2022-11-23T13:45:23.143Z,30
2022-11-23T13:46:35.847Z,34
2022-11-23T13:47:43.968Z,30
2022-11-23T13:49:00.125Z,30
2022-11-23T13:50:08.172Z,31
2022-11-23T13:51:20.588Z,28
2022-11-23T13:52:32.775Z,29
2022-11-23T13:53:39.919Z,27
2022-11-23T13:54:47.430Z,29
2022-11-23T13:56:01.050Z,28
2022-11-23T13:57:18.650Z,30
2022-11-23T13:58:25.792Z,34
2022-11-23T13:59:33.005Z,29
2022-11-23T14:00:40.111Z,33
2022-11-23T14:01:55.489Z,28
2022-11-23T14:03:10.627Z,31
2022-11-23T14:04:27.950Z,33
2022-11-23T14:05:36.830Z,35
2022-11-23T14:06:52.173Z,30
2022-11-23T14:08:02.383Z,30
2022-11-23T14:09:11.119Z,31
2022-11-23T14:10:22.216Z,27
2022-11-23T14:11:30.463Z,30
2022-11-23T14:12:37.693Z,33
2022-11-23T14:13:55.432Z,33
2022-11-23T14:15:03.630Z,33
2022-11-23T14:16:16.415Z,32
2022-11-23T14:17:24.148Z,35
2022-11-23T14:18:41.920Z,37
2022-11-23T14:19:54.507Z,34
2022-11-23T14:21:06.800Z,34
2022-11-23T14:22:17.059Z,33
2022-11-23T14:23:29.528Z,33
2022-11-23T14:24:46.765Z,33
2022-11-23T14:26:05.838Z,31
2022-11-23T14:27:45.526Z,42
2022-11-23T14:28:36.399Z,32
2022-11-23T14:29:43.573Z,27
2022-11-23T14:30:56.933Z,28
2022-11-23T14:32:09.474Z,33
2022-11-23T14:33:21.966Z,29
2022-11-23T14:34:39.351Z,35
2022-11-23T14:35:53.172Z,41
2022-11-23T14:37:08.287Z,40
2022-11-23T14:38:17.392Z,36
2022-11-23T14:39:34.743Z,33
2022-11-23T14:40:52.972Z,38
2022-11-23T14:42:08.387Z,36
2022-11-23T14:43:15.651Z,39
2022-11-23T14:44:25.267Z,38
2022-11-23T14:45:32.329Z,34
2022-11-23T14:46:39.473Z,41
2022-11-23T14:47:57.027Z,34
2022-11-23T14:49:15.378Z,37
2022-11-23T14:50:22.704Z,39
2022-11-23T14:51:29.983Z,37
2022-11-23T14:52:37.300Z,36
2022-11-23T14:53:58.448Z,42
2022-11-23T14:55:03.287Z,40
2022-11-23T14:56:10.708Z,39
2022-11-23T14:57:25.908Z,35
2022-11-23T14:58:33.356Z,34
2022-11-23T14:59:41.443Z,38
2022-11-23T15:00:48.954Z,39
2022-11-23T15:01:56.818Z,42
2022-11-23T15:03:21.027Z,40
2022-11-23T15:04:17.882Z,35
2022-11-23T15:05:31.005Z,36
2022-11-23T15:06:42.310Z,40
2022-11-23T15:07:45.772Z,43
2022-11-23T15:09:01.883Z,41
2022-11-23T15:10:11.998Z,45
2022-11-23T15:11:25.569Z,46
2022-11-23T15:12:32.806Z,45
2022-11-23T15:13:45.042Z,42
2022-11-23T15:14:54.695Z,44
2022-11-23T15:16:01.870Z,48
2022-11-23T15:17:09.001Z,45
2022-11-23T15:18:20.038Z,57
2022-11-23T15:19:32.999Z,46
2022-11-23T15:20:40.672Z,45
2022-11-23T15:21:48.441Z,44
2022-11-23T15:22:56.292Z,43
2022-11-23T15:24:04.550Z,52
2022-11-23T15:25:14.449Z,47
2022-11-23T15:26:42.294Z,46
2022-11-23T15:27:29.101Z,44
2022-11-23T15:28:36.552Z,47
2022-11-23T15:29:43.744Z,47
2022-11-23T15:30:58.905Z,47
2022-11-23T15:33:22.846Z,42
2022-11-23T15:34:30.182Z,40
2022-11-23T15:35:38.805Z,45
2022-11-23T15:36:46.211Z,36
2022-11-23T15:37:54.317Z,38
2022-11-23T15:39:01.451Z,48
2022-11-23T15:40:08.433Z,47
2022-11-23T15:41:21.230Z,45
2022-11-23T15:42:28.529Z,52
2022-11-23T15:43:35.449Z,49
2022-11-23T15:44:46.160Z,55
2022-11-23T15:45:50.758Z,47
2022-11-23T15:46:57.857Z,44
2022-11-23T15:48:05.098Z,55
2022-11-23T15:49:16.081Z,52
2022-11-23T15:50:24.145Z,56
2022-11-23T15:51:31.104Z,49
2022-11-23T15:52:38.360Z,53
2022-11-23T15:53:45.510Z,50
2022-11-23T15:54:53.337Z,53
2022-11-23T15:56:01.259Z,52
2022-11-23T15:57:08.748Z,56
2022-11-23T15:58:21.072Z,57
2022-11-23T15:59:28.134Z,60
2022-11-23T16:00:40.471Z,54
2022-11-23T16:01:50.593Z,50
2022-11-23T16:02:57.765Z,58
2022-11-23T16:04:15.692Z,58
2022-11-23T16:05:28.357Z,55
2022-11-23T16:06:35.550Z,60
2022-11-23T16:07:45.709Z,58
2022-11-23T16:08:58.129Z,63
2022-11-23T16:10:05.393Z,52
2022-11-23T16:11:22.712Z,52
2022-11-23T16:12:38.113Z,57
2022-11-23T16:13:50.983Z,55
2022-11-23T16:14:57.968Z,53
2022-11-23T16:16:15.293Z,52
2022-11-23T16:17:22.428Z,58
2022-11-23T16:18:30.781Z,60
2022-11-23T16:19:38.184Z,61
2022-11-23T16:20:45.897Z,61
2022-11-23T16:21:55.557Z,57
2022-11-23T16:23:08.344Z,64
2022-11-23T16:24:15.473Z,56
2022-11-23T16:25:22.849Z,61
2022-11-23T16:26:35.724Z,57
2022-11-23T16:27:43.256Z,55
2022-11-23T16:28:51.424Z,58
2022-11-23T16:30:02.768Z,59
2022-11-23T16:31:06.123Z,59
2022-11-23T16:32:13.024Z,63
2022-11-23T16:33:25.200Z,59
2022-11-23T16:34:32.620Z,58
2022-11-23T16:35:39.700Z,56
2022-11-23T16:36:46.784Z,47
2022-11-23T16:37:53.705Z,57
2022-11-23T16:39:05.566Z,53
2022-11-23T16:40:08.204Z,55
2022-11-23T16:41:15.896Z,55
2022-11-23T16:42:23.017Z,58